sensor_id;sensor_type;location;lat;lon;timestamp;temperature;humidity
65374;SHT31;52070;53.760;9.678;2022-07-29T00:00:58;11.74;79.61
65374;SHT31;52070;53.760;9.678;2022-07-29T00:03:26;11.73;79.74
65374;SHT31;52070;53.760;9.678;2022-07-29T00:05:53;11.69;79.75
65374;SHT31;52070;53.760;9.678;2022-07-29T00:08:20;11.62;79.87
65374;SHT31;52070;53.760;9.678;2022-07-29T00:10:47;11.58;80.24
65374;SHT31;52070;53.760;9.678;2022-07-29T00:13:15;11.53;80.14
65374;SHT31;52070;53.760;9.678;2022-07-29T00:15:46;11.53;80.09
65374;SHT31;52070;53.760;9.678;2022-07-29T00:18:13;11.52;80.08
65374;SHT31;52070;53.760;9.678;2022-07-29T00:20:40;11.49;80.14
65374;SHT31;52070;53.760;9.678;2022-07-29T00:23:07;11.43;80.10
65374;SHT31;52070;53.760;9.678;2022-07-29T00:25:34;11.38;80.30
65374;SHT31;52070;53.760;9.678;2022-07-29T00:28:01;11.32;80.30
65374;SHT31;52070;53.760;9.678;2022-07-29T00:30:28;11.31;80.45
65374;SHT31;52070;53.760;9.678;2022-07-29T00:32:56;11.28;80.59
65374;SHT31;52070;53.760;9.678;2022-07-29T00:35:24;11.22;80.69
65374;SHT31;52070;53.760;9.678;2022-07-29T00:38:08;11.19;80.95
65374;SHT31;52070;53.760;9.678;2022-07-29T00:40:35;11.15;80.82
65374;SHT31;52070;53.760;9.678;2022-07-29T00:43:03;11.16;80.79
65374;SHT31;52070;53.760;9.678;2022-07-29T00:45:30;11.14;80.84
65374;SHT31;52070;53.760;9.678;2022-07-29T00:47:58;11.12;80.80
65374;SHT31;52070;53.760;9.678;2022-07-29T00:50:26;11.12;80.78
65374;SHT31;52070;53.760;9.678;2022-07-29T00:52:53;11.08;80.85
65374;SHT31;52070;53.760;9.678;2022-07-29T00:55:20;11.08;80.93
65374;SHT31;52070;53.760;9.678;2022-07-29T00:57:50;11.05;80.98
65374;SHT31;52070;53.760;9.678;2022-07-29T01:00:20;11.01;81.13
65374;SHT31;52070;53.760;9.678;2022-07-29T01:02:48;10.97;81.05
65374;SHT31;52070;53.760;9.678;2022-07-29T01:05:19;10.95;81.10
65374;SHT31;52070;53.760;9.678;2022-07-29T01:07:49;10.89;81.22
65374;SHT31;52070;53.760;9.678;2022-07-29T01:10:19;10.88;81.37
65374;SHT31;52070;53.760;9.678;2022-07-29T01:12:48;10.88;81.58
65374;SHT31;52070;53.760;9.678;2022-07-29T01:15:16;10.88;81.82
65374;SHT31;52070;53.760;9.678;2022-07-29T01:17:45;10.85;81.93
65374;SHT31;52070;53.760;9.678;2022-07-29T01:20:20;10.84;82.06
65374;SHT31;52070;53.760;9.678;2022-07-29T01:23:23;10.81;81.90
65374;SHT31;52070;53.760;9.678;2022-07-29T01:26:01;10.81;82.13
65374;SHT31;52070;53.760;9.678;2022-07-29T01:28:47;10.77;81.96
65374;SHT31;52070;53.760;9.678;2022-07-29T01:31:19;10.77;82.04
65374;SHT31;52070;53.760;9.678;2022-07-29T01:33:58;10.71;82.41
65374;SHT31;52070;53.760;9.678;2022-07-29T01:36:29;10.69;82.51
65374;SHT31;52070;53.760;9.678;2022-07-29T01:39:04;10.63;82.57
65374;SHT31;52070;53.760;9.678;2022-07-29T01:41:34;10.63;82.56
65374;SHT31;52070;53.760;9.678;2022-07-29T01:44:11;10.61;82.76
65374;SHT31;52070;53.760;9.678;2022-07-29T01:46:42;10.58;82.99
65374;SHT31;52070;53.760;9.678;2022-07-29T01:49:14;10.57;83.31
65374;SHT31;52070;53.760;9.678;2022-07-29T01:51:46;10.58;83.40
65374;SHT31;52070;53.760;9.678;2022-07-29T01:54:18;10.57;83.73
65374;SHT31;52070;53.760;9.678;2022-07-29T01:56:48;10.54;83.83
65374;SHT31;52070;53.760;9.678;2022-07-29T01:59:18;10.57;84.00
65374;SHT31;52070;53.760;9.678;2022-07-29T02:01:47;10.57;83.98
65374;SHT31;52070;53.760;9.678;2022-07-29T02:04:15;10.58;84.24
65374;SHT31;52070;53.760;9.678;2022-07-29T02:06:44;10.57;84.12
65374;SHT31;52070;53.760;9.678;2022-07-29T02:09:13;10.58;84.19
65374;SHT31;52070;53.760;9.678;2022-07-29T02:11:43;10.61;84.24
65374;SHT31;52070;53.760;9.678;2022-07-29T02:14:13;10.61;84.19
65374;SHT31;52070;53.760;9.678;2022-07-29T02:16:43;10.63;84.18
65374;SHT31;52070;53.760;9.678;2022-07-29T02:19:12;10.64;84.42
65374;SHT31;52070;53.760;9.678;2022-07-29T02:21:40;10.60;84.25
65374;SHT31;52070;53.760;9.678;2022-07-29T02:24:09;10.60;84.62
65374;SHT31;52070;53.760;9.678;2022-07-29T02:26:39;10.60;84.61
65374;SHT31;52070;53.760;9.678;2022-07-29T02:29:08;10.58;84.89
65374;SHT31;52070;53.760;9.678;2022-07-29T02:31:37;10.58;84.75
65374;SHT31;52070;53.760;9.678;2022-07-29T02:34:08;10.56;84.87
65374;SHT31;52070;53.760;9.678;2022-07-29T02:36:36;10.54;84.86
65374;SHT31;52070;53.760;9.678;2022-07-29T02:39:04;10.56;84.87
65374;SHT31;52070;53.760;9.678;2022-07-29T02:41:37;10.56;84.70
65374;SHT31;52070;53.760;9.678;2022-07-29T02:44:10;10.60;84.66
65374;SHT31;52070;53.760;9.678;2022-07-29T02:46:37;10.60;84.52
65374;SHT31;52070;53.760;9.678;2022-07-29T02:49:14;10.61;84.47
65374;SHT31;52070;53.760;9.678;2022-07-29T02:51:44;10.61;84.51
65374;SHT31;52070;53.760;9.678;2022-07-29T02:54:20;10.60;84.46
65374;SHT31;52070;53.760;9.678;2022-07-29T02:56:47;10.60;84.67
65374;SHT31;52070;53.760;9.678;2022-07-29T02:59:23;10.58;84.58
65374;SHT31;52070;53.760;9.678;2022-07-29T03:01:52;10.60;84.52
65374;SHT31;52070;53.760;9.678;2022-07-29T03:04:24;10.58;84.58
65374;SHT31;52070;53.760;9.678;2022-07-29T03:06:55;10.60;84.81
65374;SHT31;52070;53.760;9.678;2022-07-29T03:09:25;10.57;84.81
65374;SHT31;52070;53.760;9.678;2022-07-29T03:11:54;10.60;84.71
65374;SHT31;52070;53.760;9.678;2022-07-29T03:14:21;10.61;84.69
65374;SHT31;52070;53.760;9.678;2022-07-29T03:16:49;10.58;84.79
65374;SHT31;52070;53.760;9.678;2022-07-29T03:19:18;10.61;84.79
65374;SHT31;52070;53.760;9.678;2022-07-29T03:21:47;10.63;84.77
65374;SHT31;52070;53.760;9.678;2022-07-29T03:24:29;10.60;84.88
65374;SHT31;52070;53.760;9.678;2022-07-29T03:26:57;10.63;84.86
65374;SHT31;52070;53.760;9.678;2022-07-29T03:29:25;10.60;85.11
65374;SHT31;52070;53.760;9.678;2022-07-29T03:31:52;10.60;84.98
65374;SHT31;52070;53.760;9.678;2022-07-29T03:34:19;10.60;85.08
65374;SHT31;52070;53.760;9.678;2022-07-29T03:36:50;10.60;85.00
65374;SHT31;52070;53.760;9.678;2022-07-29T03:39:19;10.64;84.96
65374;SHT31;52070;53.760;9.678;2022-07-29T03:41:48;10.64;85.31
65374;SHT31;52070;53.760;9.678;2022-07-29T03:44:17;10.67;85.16
65374;SHT31;52070;53.760;9.678;2022-07-29T03:46:48;10.65;85.16
65374;SHT31;52070;53.760;9.678;2022-07-29T03:49:16;10.68;85.09
65374;SHT31;52070;53.760;9.678;2022-07-29T03:51:44;10.69;85.04
65374;SHT31;52070;53.760;9.678;2022-07-29T03:54:13;10.74;84.92
65374;SHT31;52070;53.760;9.678;2022-07-29T03:56:42;10.77;84.86
65374;SHT31;52070;53.760;9.678;2022-07-29T03:59:12;10.79;84.78
65374;SHT31;52070;53.760;9.678;2022-07-29T04:01:41;10.81;84.71
65374;SHT31;52070;53.760;9.678;2022-07-29T04:04:09;10.84;84.63
65374;SHT31;52070;53.760;9.678;2022-07-29T04:06:39;10.88;84.60
65374;SHT31;52070;53.760;9.678;2022-07-29T04:09:07;10.91;84.60
65374;SHT31;52070;53.760;9.678;2022-07-29T04:11:36;10.95;84.59
65374;SHT31;52070;53.760;9.678;2022-07-29T04:14:03;10.99;84.42
65374;SHT31;52070;53.760;9.678;2022-07-29T04:16:30;11.02;84.48
65374;SHT31;52070;53.760;9.678;2022-07-29T04:18:57;11.08;84.39
65374;SHT31;52070;53.760;9.678;2022-07-29T04:21:25;11.11;84.42
65374;SHT31;52070;53.760;9.678;2022-07-29T04:23:51;11.12;84.51
65374;SHT31;52070;53.760;9.678;2022-07-29T04:26:19;11.16;84.39
65374;SHT31;52070;53.760;9.678;2022-07-29T04:28:48;11.21;84.31
65374;SHT31;52070;53.760;9.678;2022-07-29T04:31:15;11.25;84.34
65374;SHT31;52070;53.760;9.678;2022-07-29T04:33:42;11.29;84.32
65374;SHT31;52070;53.760;9.678;2022-07-29T04:36:09;11.32;84.32
65374;SHT31;52070;53.760;9.678;2022-07-29T04:38:37;11.36;84.32
65374;SHT31;52070;53.760;9.678;2022-07-29T04:41:04;11.43;84.37
65374;SHT31;52070;53.760;9.678;2022-07-29T04:43:32;11.44;84.45
65374;SHT31;52070;53.760;9.678;2022-07-29T04:46:01;11.51;84.37
65374;SHT31;52070;53.760;9.678;2022-07-29T04:48:28;11.55;84.42
65374;SHT31;52070;53.760;9.678;2022-07-29T04:50:58;11.59;84.39
65374;SHT31;52070;53.760;9.678;2022-07-29T04:53:25;11.63;84.25
65374;SHT31;52070;53.760;9.678;2022-07-29T04:55:52;11.67;84.13
65374;SHT31;52070;53.760;9.678;2022-07-29T04:58:19;11.74;84.06
65374;SHT31;52070;53.760;9.678;2022-07-29T05:00:46;11.80;83.96
65374;SHT31;52070;53.760;9.678;2022-07-29T05:03:14;11.86;84.00
65374;SHT31;52070;53.760;9.678;2022-07-29T05:05:41;11.96;83.94
65374;SHT31;52070;53.760;9.678;2022-07-29T05:08:08;12.01;83.83
65374;SHT31;52070;53.760;9.678;2022-07-29T05:10:35;12.06;83.75
65374;SHT31;52070;53.760;9.678;2022-07-29T05:13:04;12.13;83.60
65374;SHT31;52070;53.760;9.678;2022-07-29T05:15:32;12.20;83.42
65374;SHT31;52070;53.760;9.678;2022-07-29T05:17:59;12.24;83.25
65374;SHT31;52070;53.760;9.678;2022-07-29T05:20:28;12.27;83.24
65374;SHT31;52070;53.760;9.678;2022-07-29T05:22:56;12.34;83.26
65374;SHT31;52070;53.760;9.678;2022-07-29T05:25:23;12.38;83.20
65374;SHT31;52070;53.760;9.678;2022-07-29T05:27:50;12.47;83.11
65374;SHT31;52070;53.760;9.678;2022-07-29T05:30:17;12.57;83.07
65374;SHT31;52070;53.760;9.678;2022-07-29T05:32:45;12.68;82.93
65374;SHT31;52070;53.760;9.678;2022-07-29T05:35:13;12.78;82.64
65374;SHT31;52070;53.760;9.678;2022-07-29T05:37:42;12.91;82.56
65374;SHT31;52070;53.760;9.678;2022-07-29T05:40:09;13.05;82.30
65374;SHT31;52070;53.760;9.678;2022-07-29T05:42:37;13.16;82.00
65374;SHT31;52070;53.760;9.678;2022-07-29T05:45:05;13.30;81.76
65374;SHT31;52070;53.760;9.678;2022-07-29T05:47:32;13.40;81.89
65374;SHT31;52070;53.760;9.678;2022-07-29T05:49:59;13.56;81.86
65374;SHT31;52070;53.760;9.678;2022-07-29T05:52:26;13.74;81.00
65374;SHT31;52070;53.760;9.678;2022-07-29T05:54:55;13.88;80.38
65374;SHT31;52070;53.760;9.678;2022-07-29T05:57:23;14.00;79.93
65374;SHT31;52070;53.760;9.678;2022-07-29T05:59:51;14.11;79.68
65374;SHT31;52070;53.760;9.678;2022-07-29T06:02:18;14.21;79.65
65374;SHT31;52070;53.760;9.678;2022-07-29T06:04:45;14.34;78.53
65374;SHT31;52070;53.760;9.678;2022-07-29T06:07:12;14.44;79.16
65374;SHT31;52070;53.760;9.678;2022-07-29T06:09:39;14.58;78.74
65374;SHT31;52070;53.760;9.678;2022-07-29T06:12:08;14.72;78.98
65374;SHT31;52070;53.760;9.678;2022-07-29T06:14:35;14.82;78.60
65374;SHT31;52070;53.760;9.678;2022-07-29T06:17:03;14.90;78.42
65374;SHT31;52070;53.760;9.678;2022-07-29T06:19:31;14.99;78.47
65374;SHT31;52070;53.760;9.678;2022-07-29T06:22:00;15.03;78.12
65374;SHT31;52070;53.760;9.678;2022-07-29T06:24:27;15.11;77.93
65374;SHT31;52070;53.760;9.678;2022-07-29T06:26:54;15.22;78.26
65374;SHT31;52070;53.760;9.678;2022-07-29T06:29:23;15.31;77.63
65374;SHT31;52070;53.760;9.678;2022-07-29T06:31:50;15.40;76.97
65374;SHT31;52070;53.760;9.678;2022-07-29T06:34:17;15.49;75.31
65374;SHT31;52070;53.760;9.678;2022-07-29T06:36:44;15.54;74.60
65374;SHT31;52070;53.760;9.678;2022-07-29T06:39:11;15.63;75.53
65374;SHT31;52070;53.760;9.678;2022-07-29T06:41:38;15.68;74.13
65374;SHT31;52070;53.760;9.678;2022-07-29T06:44:05;15.70;74.42
65374;SHT31;52070;53.760;9.678;2022-07-29T06:46:34;15.78;74.67
65374;SHT31;52070;53.760;9.678;2022-07-29T06:49:01;15.84;74.46
65374;SHT31;52070;53.760;9.678;2022-07-29T06:51:28;15.88;74.39
65374;SHT31;52070;53.760;9.678;2022-07-29T06:53:55;15.94;74.65
65374;SHT31;52070;53.760;9.678;2022-07-29T06:56:23;16.00;72.92
65374;SHT31;52070;53.760;9.678;2022-07-29T06:58:50;15.98;72.68
65374;SHT31;52070;53.760;9.678;2022-07-29T07:01:17;16.00;72.20
65374;SHT31;52070;53.760;9.678;2022-07-29T07:03:45;16.02;72.70
65374;SHT31;52070;53.760;9.678;2022-07-29T07:06:12;16.04;72.49
65374;SHT31;52070;53.760;9.678;2022-07-29T07:08:39;16.06;73.30
65374;SHT31;52070;53.760;9.678;2022-07-29T07:11:06;16.12;73.56
65374;SHT31;52070;53.760;9.678;2022-07-29T07:13:33;16.16;74.06
65374;SHT31;52070;53.760;9.678;2022-07-29T07:16:01;16.21;74.24
65374;SHT31;52070;53.760;9.678;2022-07-29T07:18:28;16.25;74.08
65374;SHT31;52070;53.760;9.678;2022-07-29T07:20:56;16.29;73.76
65374;SHT31;52070;53.760;9.678;2022-07-29T07:23:24;16.35;73.71
65374;SHT31;52070;53.760;9.678;2022-07-29T07:25:52;16.51;72.35
65374;SHT31;52070;53.760;9.678;2022-07-29T07:28:19;16.55;72.44
65374;SHT31;52070;53.760;9.678;2022-07-29T07:30:46;16.57;72.10
65374;SHT31;52070;53.760;9.678;2022-07-29T07:33:13;16.67;72.36
65374;SHT31;52070;53.760;9.678;2022-07-29T07:35:43;16.72;71.89
65374;SHT31;52070;53.760;9.678;2022-07-29T07:38:12;16.80;72.07
65374;SHT31;52070;53.760;9.678;2022-07-29T07:40:39;16.87;72.25
65374;SHT31;52070;53.760;9.678;2022-07-29T07:43:06;16.94;71.45
65374;SHT31;52070;53.760;9.678;2022-07-29T07:45:33;17.04;71.69
65374;SHT31;52070;53.760;9.678;2022-07-29T07:48:03;17.09;71.46
65374;SHT31;52070;53.760;9.678;2022-07-29T07:50:30;17.16;71.64
65374;SHT31;52070;53.760;9.678;2022-07-29T07:52:57;17.27;71.85
65374;SHT31;52070;53.760;9.678;2022-07-29T07:55:26;17.32;70.70
65374;SHT31;52070;53.760;9.678;2022-07-29T07:57:53;17.37;71.80
65374;SHT31;52070;53.760;9.678;2022-07-29T08:00:21;17.44;70.97
65374;SHT31;52070;53.760;9.678;2022-07-29T08:02:48;17.48;71.00
65374;SHT31;52070;53.760;9.678;2022-07-29T08:05:15;17.54;70.85
65374;SHT31;52070;53.760;9.678;2022-07-29T08:07:44;17.58;71.93
65374;SHT31;52070;53.760;9.678;2022-07-29T08:10:12;17.65;71.10
65374;SHT31;52070;53.760;9.678;2022-07-29T08:12:40;17.70;70.41
65374;SHT31;52070;53.760;9.678;2022-07-29T08:15:10;17.79;70.67
65374;SHT31;52070;53.760;9.678;2022-07-29T08:17:38;17.94;69.61
65374;SHT31;52070;53.760;9.678;2022-07-29T08:20:05;18.02;69.21
65374;SHT31;52070;53.760;9.678;2022-07-29T08:22:32;18.13;69.80
65374;SHT31;52070;53.760;9.678;2022-07-29T08:24:59;18.29;69.37
65374;SHT31;52070;53.760;9.678;2022-07-29T08:27:26;18.43;69.50
65374;SHT31;52070;53.760;9.678;2022-07-29T08:29:57;18.60;68.24
65374;SHT31;52070;53.760;9.678;2022-07-29T08:32:24;18.77;67.22
65374;SHT31;52070;53.760;9.678;2022-07-29T08:34:54;18.93;67.27
65374;SHT31;52070;53.760;9.678;2022-07-29T08:37:21;19.15;66.87
65374;SHT31;52070;53.760;9.678;2022-07-29T08:39:48;19.36;67.44
65374;SHT31;52070;53.760;9.678;2022-07-29T08:42:15;19.55;66.81
65374;SHT31;52070;53.760;9.678;2022-07-29T08:44:42;19.71;65.91
65374;SHT31;52070;53.760;9.678;2022-07-29T08:47:13;19.78;65.71
65374;SHT31;52070;53.760;9.678;2022-07-29T08:49:40;19.73;64.11
65374;SHT31;52070;53.760;9.678;2022-07-29T08:52:10;19.73;64.99
65374;SHT31;52070;53.760;9.678;2022-07-29T08:54:38;19.81;65.27
65374;SHT31;52070;53.760;9.678;2022-07-29T08:57:06;19.82;65.99
65374;SHT31;52070;53.760;9.678;2022-07-29T08:59:34;19.85;65.65
65374;SHT31;52070;53.760;9.678;2022-07-29T09:02:01;19.93;65.51
65374;SHT31;52070;53.760;9.678;2022-07-29T09:04:33;20.05;66.26
65374;SHT31;52070;53.760;9.678;2022-07-29T09:07:03;20.10;65.64
65374;SHT31;52070;53.760;9.678;2022-07-29T09:09:33;20.10;62.95
65374;SHT31;52070;53.760;9.678;2022-07-29T09:12:00;20.13;63.37
65374;SHT31;52070;53.760;9.678;2022-07-29T09:14:29;20.20;64.68
65374;SHT31;52070;53.760;9.678;2022-07-29T09:16:56;20.24;63.73
65374;SHT31;52070;53.760;9.678;2022-07-29T09:19:25;20.30;63.26
65374;SHT31;52070;53.760;9.678;2022-07-29T09:21:55;20.34;63.29
65374;SHT31;52070;53.760;9.678;2022-07-29T09:24:28;20.36;62.57
65374;SHT31;52070;53.760;9.678;2022-07-29T09:27:08;20.39;64.19
65374;SHT31;52070;53.760;9.678;2022-07-29T09:29:36;20.41;62.72
65374;SHT31;52070;53.760;9.678;2022-07-29T09:32:08;20.47;61.89
65374;SHT31;52070;53.760;9.678;2022-07-29T09:34:36;20.48;63.04
65374;SHT31;52070;53.760;9.678;2022-07-29T09:37:04;20.53;62.56
65374;SHT31;52070;53.760;9.678;2022-07-29T09:39:33;20.57;64.08
65374;SHT31;52070;53.760;9.678;2022-07-29T09:42:02;20.66;61.87
65374;SHT31;52070;53.760;9.678;2022-07-29T09:44:41;20.68;62.47
65374;SHT31;52070;53.760;9.678;2022-07-29T09:47:08;20.77;63.97
65374;SHT31;52070;53.760;9.678;2022-07-29T09:49:49;20.77;62.96
65374;SHT31;52070;53.760;9.678;2022-07-29T09:52:18;20.81;63.37
65374;SHT31;52070;53.760;9.678;2022-07-29T09:54:45;20.81;61.98
65374;SHT31;52070;53.760;9.678;2022-07-29T09:57:23;20.84;61.40
65374;SHT31;52070;53.760;9.678;2022-07-29T09:59:56;20.87;61.77
65374;SHT31;52070;53.760;9.678;2022-07-29T10:02:28;20.92;61.33
65374;SHT31;52070;53.760;9.678;2022-07-29T10:04:56;20.91;58.42
65374;SHT31;52070;53.760;9.678;2022-07-29T10:07:25;20.92;58.15
65374;SHT31;52070;53.760;9.678;2022-07-29T10:09:53;20.87;59.51
65374;SHT31;52070;53.760;9.678;2022-07-29T10:12:21;20.91;59.58
65374;SHT31;52070;53.760;9.678;2022-07-29T10:14:49;20.94;58.98
65374;SHT31;52070;53.760;9.678;2022-07-29T10:17:17;20.95;57.40
65374;SHT31;52070;53.760;9.678;2022-07-29T10:19:44;20.92;57.82
65374;SHT31;52070;53.760;9.678;2022-07-29T10:22:14;21.01;59.90
65374;SHT31;52070;53.760;9.678;2022-07-29T10:24:43;21.02;56.22
65374;SHT31;52070;53.760;9.678;2022-07-29T10:27:10;21.05;56.62
65374;SHT31;52070;53.760;9.678;2022-07-29T10:29:38;21.08;57.06
65374;SHT31;52070;53.760;9.678;2022-07-29T10:32:26;21.08;55.86
65374;SHT31;52070;53.760;9.678;2022-07-29T10:35:19;21.07;56.07
65374;SHT31;52070;53.760;9.678;2022-07-29T10:38:21;21.14;56.14
65374;SHT31;52070;53.760;9.678;2022-07-29T10:41:00;21.18;56.10
65374;SHT31;52070;53.760;9.678;2022-07-29T10:43:47;21.15;56.61
65374;SHT31;52070;53.760;9.678;2022-07-29T10:46:15;21.24;57.51
65374;SHT31;52070;53.760;9.678;2022-07-29T10:49:08;21.24;57.58
65374;SHT31;52070;53.760;9.678;2022-07-29T10:51:55;21.25;55.83
65374;SHT31;52070;53.760;9.678;2022-07-29T10:54:43;21.27;57.40
65374;SHT31;52070;53.760;9.678;2022-07-29T10:57:17;21.32;57.47
65374;SHT31;52070;53.760;9.678;2022-07-29T10:59:46;21.31;57.07
65374;SHT31;52070;53.760;9.678;2022-07-29T11:05:21;21.38;56.48
65374;SHT31;52070;53.760;9.678;2022-07-29T11:08:23;21.42;56.44
65374;SHT31;52070;53.760;9.678;2022-07-29T11:10:53;21.45;57.01
65374;SHT31;52070;53.760;9.678;2022-07-29T11:13:50;21.49;56.41
65374;SHT31;52070;53.760;9.678;2022-07-29T11:16:19;21.53;54.97
65374;SHT31;52070;53.760;9.678;2022-07-29T11:19:19;21.58;55.48
65374;SHT31;52070;53.760;9.678;2022-07-29T11:21:46;21.58;56.07
65374;SHT31;52070;53.760;9.678;2022-07-29T11:24:17;21.67;57.01
65374;SHT31;52070;53.760;9.678;2022-07-29T11:26:44;21.72;55.63
65374;SHT31;52070;53.760;9.678;2022-07-29T11:29:19;21.75;55.35
65374;SHT31;52070;53.760;9.678;2022-07-29T11:31:49;21.82;55.61
65374;SHT31;52070;53.760;9.678;2022-07-29T11:34:22;21.90;57.09
65374;SHT31;52070;53.760;9.678;2022-07-29T11:37:21;21.99;55.61
65374;SHT31;52070;53.760;9.678;2022-07-29T11:40:15;22.12;57.13
65374;SHT31;52070;53.760;9.678;2022-07-29T11:42:46;22.24;56.42
65374;SHT31;52070;53.760;9.678;2022-07-29T11:45:45;22.44;55.18
65374;SHT31;52070;53.760;9.678;2022-07-29T11:48:16;22.67;55.53
65374;SHT31;52070;53.760;9.678;2022-07-29T11:50:44;22.88;54.83
65374;SHT31;52070;53.760;9.678;2022-07-29T11:53:12;23.07;52.80
65374;SHT31;52070;53.760;9.678;2022-07-29T11:55:40;23.33;51.45
65374;SHT31;52070;53.760;9.678;2022-07-29T11:58:08;23.59;51.04
65374;SHT31;52070;53.760;9.678;2022-07-29T12:00:38;23.84;51.22
65374;SHT31;52070;53.760;9.678;2022-07-29T12:03:06;24.20;51.49
65374;SHT31;52070;53.760;9.678;2022-07-29T12:05:37;24.68;50.26
65374;SHT31;52070;53.760;9.678;2022-07-29T12:08:15;25.05;45.65
65374;SHT31;52070;53.760;9.678;2022-07-29T12:10:45;25.43;44.58
65374;SHT31;52070;53.760;9.678;2022-07-29T12:13:13;25.60;43.51
65374;SHT31;52070;53.760;9.678;2022-07-29T12:15:51;25.79;43.76
65374;SHT31;52070;53.760;9.678;2022-07-29T12:18:19;25.96;43.62
65374;SHT31;52070;53.760;9.678;2022-07-29T12:20:47;25.93;40.21
65374;SHT31;52070;53.760;9.678;2022-07-29T12:23:15;25.96;42.25
65374;SHT31;52070;53.760;9.678;2022-07-29T12:25:43;26.13;43.57
65374;SHT31;52070;53.760;9.678;2022-07-29T12:28:12;26.24;42.34
65374;SHT31;52070;53.760;9.678;2022-07-29T12:30:44;26.13;40.22
65374;SHT31;52070;53.760;9.678;2022-07-29T12:33:17;25.97;42.31
65374;SHT31;52070;53.760;9.678;2022-07-29T12:35:48;25.80;43.04
65374;SHT31;52070;53.760;9.678;2022-07-29T12:38:16;25.59;44.47
65374;SHT31;52070;53.760;9.678;2022-07-29T12:40:44;25.38;42.66
65374;SHT31;52070;53.760;9.678;2022-07-29T12:43:14;25.25;43.89
65374;SHT31;52070;53.760;9.678;2022-07-29T12:45:46;25.12;44.75
65374;SHT31;52070;53.760;9.678;2022-07-29T12:48:14;24.99;45.03
65374;SHT31;52070;53.760;9.678;2022-07-29T12:50:55;24.81;43.34
65374;SHT31;52070;53.760;9.678;2022-07-29T12:53:22;24.76;44.16
65374;SHT31;52070;53.760;9.678;2022-07-29T12:55:50;24.75;44.12
65374;SHT31;52070;53.760;9.678;2022-07-29T12:58:32;24.86;46.18
65374;SHT31;52070;53.760;9.678;2022-07-29T13:01:03;25.11;43.52
65374;SHT31;52070;53.760;9.678;2022-07-29T13:03:42;25.65;48.13
65374;SHT31;52070;53.760;9.678;2022-07-29T13:06:31;26.11;42.50
65374;SHT31;52070;53.760;9.678;2022-07-29T13:09:05;26.58;43.48
65374;SHT31;52070;53.760;9.678;2022-07-29T13:11:33;27.00;40.53
65374;SHT31;52070;53.760;9.678;2022-07-29T13:14:01;27.26;43.12
65374;SHT31;52070;53.760;9.678;2022-07-29T13:16:30;27.36;40.01
65374;SHT31;52070;53.760;9.678;2022-07-29T13:19:05;27.47;40.56
65374;SHT31;52070;53.760;9.678;2022-07-29T13:21:32;27.78;41.62
65374;SHT31;52070;53.760;9.678;2022-07-29T13:23:59;28.08;39.14
65374;SHT31;52070;53.760;9.678;2022-07-29T13:26:26;28.17;37.68
65374;SHT31;52070;53.760;9.678;2022-07-29T13:28:56;28.00;39.73
65374;SHT31;52070;53.760;9.678;2022-07-29T13:31:23;27.91;39.72
65374;SHT31;52070;53.760;9.678;2022-07-29T13:33:51;27.51;40.87
65374;SHT31;52070;53.760;9.678;2022-07-29T13:36:18;27.20;41.14
65374;SHT31;52070;53.760;9.678;2022-07-29T13:38:46;26.75;41.26
65374;SHT31;52070;53.760;9.678;2022-07-29T13:41:13;26.51;43.01
65374;SHT31;52070;53.760;9.678;2022-07-29T13:43:40;26.55;44.25
65374;SHT31;52070;53.760;9.678;2022-07-29T13:46:07;26.68;43.10
65374;SHT31;52070;53.760;9.678;2022-07-29T13:48:34;26.69;41.52
65374;SHT31;52070;53.760;9.678;2022-07-29T13:51:02;26.72;41.19
65374;SHT31;52070;53.760;9.678;2022-07-29T13:53:29;26.75;41.37
65374;SHT31;52070;53.760;9.678;2022-07-29T13:55:56;26.81;41.24
65374;SHT31;52070;53.760;9.678;2022-07-29T13:58:23;27.06;41.72
65374;SHT31;52070;53.760;9.678;2022-07-29T14:00:50;27.05;40.82
65374;SHT31;52070;53.760;9.678;2022-07-29T14:03:17;26.92;40.91
65374;SHT31;52070;53.760;9.678;2022-07-29T14:05:44;26.68;42.66
65374;SHT31;52070;53.760;9.678;2022-07-29T14:08:13;26.38;41.77
65374;SHT31;52070;53.760;9.678;2022-07-29T14:10:40;26.07;42.14
65374;SHT31;52070;53.760;9.678;2022-07-29T14:13:07;25.86;42.44
65374;SHT31;52070;53.760;9.678;2022-07-29T14:15:34;25.76;44.52
65374;SHT31;52070;53.760;9.678;2022-07-29T14:18:01;25.73;45.16
65374;SHT31;52070;53.760;9.678;2022-07-29T14:20:28;25.66;43.86
65374;SHT31;52070;53.760;9.678;2022-07-29T14:22:55;25.59;43.75
65374;SHT31;52070;53.760;9.678;2022-07-29T14:25:24;25.50;42.89
65374;SHT31;52070;53.760;9.678;2022-07-29T14:27:51;25.54;45.03
65374;SHT31;52070;53.760;9.678;2022-07-29T14:30:18;25.56;46.62
65374;SHT31;52070;53.760;9.678;2022-07-29T14:32:47;25.56;46.21
65374;SHT31;52070;53.760;9.678;2022-07-29T14:35:15;25.50;46.10
65374;SHT31;52070;53.760;9.678;2022-07-29T14:37:42;25.43;46.04
65374;SHT31;52070;53.760;9.678;2022-07-29T14:40:10;25.43;47.69
65374;SHT31;52070;53.760;9.678;2022-07-29T14:42:41;25.46;47.90
65374;SHT31;52070;53.760;9.678;2022-07-29T14:45:09;25.62;48.28
65374;SHT31;52070;53.760;9.678;2022-07-29T14:47:36;25.79;47.53
65374;SHT31;52070;53.760;9.678;2022-07-29T14:50:04;25.91;46.34
65374;SHT31;52070;53.760;9.678;2022-07-29T14:52:32;26.00;46.04
65374;SHT31;52070;53.760;9.678;2022-07-29T14:54:59;26.04;46.47
65374;SHT31;52070;53.760;9.678;2022-07-29T14:57:26;26.25;45.61
65374;SHT31;52070;53.760;9.678;2022-07-29T14:59:55;26.52;44.88
65374;SHT31;52070;53.760;9.678;2022-07-29T15:02:22;26.88;43.79
65374;SHT31;52070;53.760;9.678;2022-07-29T15:04:49;27.03;43.65
65374;SHT31;52070;53.760;9.678;2022-07-29T15:07:16;26.82;44.04
65374;SHT31;52070;53.760;9.678;2022-07-29T15:09:43;26.49;44.95
65374;SHT31;52070;53.760;9.678;2022-07-29T15:12:11;26.16;44.84
65374;SHT31;52070;53.760;9.678;2022-07-29T15:14:38;25.90;44.21
65374;SHT31;52070;53.760;9.678;2022-07-29T15:17:06;25.69;46.15
65374;SHT31;52070;53.760;9.678;2022-07-29T15:19:33;25.62;45.51
65374;SHT31;52070;53.760;9.678;2022-07-29T15:22:01;25.71;45.00
65374;SHT31;52070;53.760;9.678;2022-07-29T15:24:28;25.50;46.48
65374;SHT31;52070;53.760;9.678;2022-07-29T15:26:55;25.35;46.88
65374;SHT31;52070;53.760;9.678;2022-07-29T15:29:22;25.23;46.58
65374;SHT31;52070;53.760;9.678;2022-07-29T15:31:49;25.11;45.27
65374;SHT31;52070;53.760;9.678;2022-07-29T15:34:17;25.14;45.43
65374;SHT31;52070;53.760;9.678;2022-07-29T15:36:46;25.33;46.71
65374;SHT31;52070;53.760;9.678;2022-07-29T15:39:15;25.42;46.99
65374;SHT31;52070;53.760;9.678;2022-07-29T15:41:42;25.49;47.01
65374;SHT31;52070;53.760;9.678;2022-07-29T15:44:09;25.50;46.42
65374;SHT31;52070;53.760;9.678;2022-07-29T15:46:36;25.56;46.26
65374;SHT31;52070;53.760;9.678;2022-07-29T15:49:22;25.76;46.50